createdAt,value
2018-02-22T00:03:50.615Z,73.50
2018-02-22T00:08:44.914Z,73.10
2018-02-22T00:13:39.536Z,73.70
2018-02-22T00:18:33.880Z,74.20
2018-02-22T00:23:28.227Z,73.80
2018-02-22T00:28:22.508Z,73.80
2018-02-22T00:33:16.952Z,74.70
2018-02-22T00:38:12.082Z,75.00
2018-02-22T00:43:06.915Z,74.70
2018-02-22T00:48:01.236Z,74.60
2018-02-22T00:52:55.539Z,75.20
2018-02-22T00:57:49.846Z,74.70
2018-02-22T01:02:44.948Z,75.60
2018-02-22T01:07:39.226Z,75.60
2018-02-22T01:12:34.293Z,75.60
2018-02-22T01:17:28.718Z,75.60
2018-02-22T01:22:23.028Z,75.70
2018-02-22T01:27:18.220Z,75.60
2018-02-22T01:32:12.517Z,75.60
2018-02-22T01:37:06.931Z,75.40
2018-02-22T01:42:01.197Z,75.30
2018-02-22T01:46:55.508Z,75.40
2018-02-22T01:51:49.776Z,74.70
2018-02-22T01:56:44.085Z,74.50
2018-02-22T02:01:38.572Z,74.40
2018-02-22T02:06:33.731Z,74.10
2018-02-22T02:11:28.789Z,73.90
2018-02-22T02:16:23.484Z,73.80
2018-02-22T02:21:17.834Z,74.80
2018-02-22T02:26:12.132Z,74.00
2018-02-22T02:31:06.574Z,73.90
2018-02-22T02:36:01.052Z,73.70
2018-02-22T02:40:55.348Z,73.60
2018-02-22T02:45:49.662Z,74.30
2018-02-22T02:50:43.953Z,74.10
2018-02-22T02:55:38.265Z,74.20
2018-02-22T03:00:32.590Z,73.80
2018-02-22T03:05:26.862Z,74.00
2018-02-22T03:10:21.183Z,74.00
2018-02-22T03:15:15.464Z,74.50
2018-02-22T03:20:09.814Z,73.70
2018-02-22T03:25:03.869Z,73.70
2018-02-22T03:29:58.158Z,74.30
2018-02-22T03:34:52.507Z,73.70
2018-02-22T03:39:46.950Z,74.20
2018-02-22T03:44:41.250Z,74.00
2018-02-22T03:49:35.549Z,74.30
2018-02-22T03:54:30.518Z,74.70
2018-02-22T03:59:24.989Z,74.70
2018-02-22T04:04:19.525Z,74.60
2018-02-22T04:09:13.829Z,74.70
2018-02-22T04:14:08.105Z,74.70
2018-02-22T04:19:03.228Z,74.60
2018-02-22T04:23:57.694Z,74.70
2018-02-22T04:28:52.880Z,74.50
2018-02-22T04:33:47.199Z,74.40
2018-02-22T04:38:41.500Z,74.70
2018-02-22T04:43:35.923Z,74.70
2018-02-22T04:48:30.981Z,74.50
2018-02-22T04:53:25.287Z,74.50
2018-02-22T04:58:19.777Z,74.80
2018-02-22T05:03:14.089Z,74.70
2018-02-22T05:08:08.395Z,75.10
2018-02-22T05:13:02.741Z,75.40
2018-02-22T05:17:57.392Z,75.10
2018-02-22T05:22:51.743Z,75.60
2018-02-22T05:27:46.480Z,75.80
2018-02-22T05:32:41.767Z,75.40
2018-02-22T05:37:36.238Z,75.40
2018-02-22T05:42:31.050Z,75.30
2018-02-22T05:47:25.537Z,75.80
2018-02-22T05:52:19.836Z,75.80
2018-02-22T05:57:14.154Z,75.80
2018-02-22T06:02:08.570Z,77.20
2018-02-22T06:07:02.878Z,76.30
2018-02-22T06:11:57.279Z,77.20
2018-02-22T06:16:51.579Z,76.70
2018-02-22T06:21:45.951Z,76.70
2018-02-22T06:26:40.269Z,76.40
2018-02-22T06:31:34.569Z,75.70
2018-02-22T06:36:29.686Z,76.30
2018-02-22T06:41:23.985Z,76.00
2018-02-22T06:46:18.333Z,76.20
2018-02-22T06:51:12.942Z,75.30
2018-02-22T06:56:07.274Z,75.20
2018-02-22T07:01:01.768Z,75.30
2018-02-22T07:05:56.860Z,74.30
2018-02-22T07:10:51.636Z,74.20
2018-02-22T07:15:46.189Z,73.50
2018-02-22T07:20:41.324Z,72.50
2018-02-22T07:25:36.521Z,72.00
2018-02-22T07:30:31.134Z,72.00
2018-02-22T07:35:25.439Z,71.50
2018-02-22T07:40:19.736Z,71.10
2018-02-22T07:45:14.058Z,70.40
2018-02-22T07:50:09.275Z,50.80
2018-02-22T07:55:04.384Z,45.00
2018-02-22T07:59:59.498Z,42.10
2018-02-22T08:04:53.953Z,42.00
2018-02-22T08:09:48.274Z,37.40
2018-02-22T08:14:42.564Z,35.50
2018-02-22T08:19:36.874Z,30.60
2018-02-22T08:24:31.289Z,29.70
2018-02-22T08:29:25.403Z,28.10
2018-02-22T08:34:19.697Z,28.50
2018-02-22T08:39:14.268Z,25.50
2018-02-22T08:44:08.750Z,25.30
2018-02-22T08:49:03.068Z,24.60
2018-02-22T08:53:57.396Z,22.40
2018-02-22T08:58:51.702Z,22.10
2018-02-22T09:03:46.045Z,21.30
2018-02-22T09:08:41.117Z,20.30
2018-02-22T09:13:35.434Z,20.20
2018-02-22T09:18:29.785Z,19.80
2018-02-22T09:23:24.093Z,18.60
2018-02-22T09:28:18.410Z,16.90
2018-02-22T09:33:12.691Z,17.70
2018-02-22T09:38:07.320Z,16.70
2018-02-22T09:43:01.609Z,16.40
2018-02-22T09:47:56.087Z,17.00
2018-02-22T09:52:51.151Z,17.50
2018-02-22T09:57:45.455Z,17.50
2018-02-22T10:02:39.757Z,16.50
2018-02-22T10:07:34.050Z,19.30
2018-02-22T10:12:28.363Z,24.80
2018-02-22T10:17:22.649Z,30.70
2018-02-22T10:22:17.074Z,35.00
2018-02-22T10:27:11.714Z,37.20
2018-02-22T10:32:07.015Z,40.90
2018-02-22T10:37:01.397Z,40.80
2018-02-22T10:41:55.699Z,41.60
2018-02-22T10:46:50.254Z,42.30
2018-02-22T10:51:45.298Z,42.80
2018-02-22T10:56:39.609Z,42.70
2018-02-22T11:01:39.399Z,42.70
2018-02-22T11:06:34.467Z,41.10
2018-02-22T11:11:28.761Z,41.10
2018-02-22T11:16:23.055Z,40.50
2018-02-22T11:21:17.373Z,40.30
2018-02-22T11:26:11.661Z,40.10
2018-02-22T11:31:05.947Z,40.00
2018-02-22T11:36:00.263Z,39.90
2018-02-22T11:40:54.554Z,40.20
2018-02-22T11:45:48.858Z,40.90
2018-02-22T11:50:43.156Z,39.80
2018-02-22T11:55:37.451Z,39.50
2018-02-22T12:00:31.822Z,38.90
2018-02-22T12:05:26.920Z,37.80
2018-02-22T12:10:21.385Z,37.70
2018-02-22T12:15:15.670Z,38.30
2018-02-22T12:20:09.995Z,38.00
2018-02-22T12:25:04.129Z,38.30
2018-02-22T12:29:59.209Z,36.10
2018-02-22T12:34:53.469Z,36.10
2018-02-22T12:39:48.535Z,35.80
2018-02-22T12:44:42.849Z,35.70
2018-02-22T12:49:37.120Z,34.80
2018-02-22T12:54:31.405Z,34.40
2018-02-22T12:59:25.686Z,34.60
2018-02-22T13:04:20.857Z,34.70
2018-02-22T13:09:15.160Z,34.70
2018-02-22T13:14:09.679Z,33.90
2018-02-22T13:19:04.023Z,34.00
2018-02-22T13:23:59.340Z,34.10
2018-02-22T13:28:54.412Z,33.50
2018-02-22T13:34:06.063Z,33.50
2018-02-22T13:39:09.724Z,33.90
2018-02-22T13:44:21.210Z,33.80
2018-02-22T13:49:32.611Z,32.60
2018-02-22T13:54:26.998Z,32.60
2018-02-22T13:59:22.239Z,33.20
2018-02-22T14:04:16.513Z,33.10
2018-02-22T14:09:11.888Z,33.90
2018-02-22T14:14:06.388Z,33.90
2018-02-22T14:19:00.686Z,34.10
2018-02-22T14:23:54.985Z,34.60
2018-02-22T14:28:49.286Z,34.10
2018-02-22T14:33:43.351Z,34.30
2018-02-22T14:38:38.772Z,34.50
2018-02-22T14:43:33.834Z,34.40
2018-02-22T14:48:28.134Z,34.40
2018-02-22T14:53:22.428Z,34.70
2018-02-22T14:58:16.833Z,35.50
2018-02-22T15:03:11.118Z,35.90
2018-02-22T15:08:05.451Z,36.30
2018-02-22T15:12:59.775Z,35.80
2018-02-22T15:17:54.098Z,35.30
2018-02-22T15:22:49.157Z,35.50
2018-02-22T15:27:45.177Z,35.40
2018-02-22T15:32:39.462Z,35.70
2018-02-22T15:37:34.513Z,36.70
2018-02-22T15:42:28.809Z,36.70
2018-02-22T15:47:23.143Z,36.90
2018-02-22T15:52:17.659Z,38.30
2018-02-22T15:57:12.004Z,39.30
2018-02-22T16:02:06.570Z,40.20
2018-02-22T16:07:00.856Z,40.60
2018-02-22T16:11:55.188Z,40.80
2018-02-22T16:16:50.392Z,39.80
2018-02-22T16:21:44.882Z,39.80
2018-02-22T16:26:39.677Z,39.30
2018-02-22T16:31:33.837Z,39.50
2018-02-22T16:36:29.104Z,39.30
2018-02-22T16:41:24.430Z,39.90
2018-02-22T16:46:18.803Z,39.90
2018-02-22T16:51:13.106Z,41.00
2018-02-22T16:56:07.563Z,41.10
2018-02-22T17:01:02.815Z,41.50
2018-02-22T17:05:57.860Z,41.50
2018-02-22T17:10:52.411Z,41.50
2018-02-22T17:15:46.782Z,41.90
2018-02-22T17:20:41.071Z,42.40
2018-02-22T17:25:34.518Z,42.80
2018-02-22T17:30:34.967Z,43.70
2018-02-22T17:35:31.436Z,44.00
2018-02-22T17:40:29.023Z,43.80
2018-02-22T17:45:23.298Z,44.30
2018-02-22T17:50:18.423Z,44.80
2018-02-22T17:55:12.858Z,44.80
2018-02-22T18:00:06.979Z,45.00
2018-02-22T18:05:01.353Z,45.30
2018-02-22T18:09:55.965Z,46.10
2018-02-22T18:14:50.369Z,46.20
2018-02-22T18:19:44.483Z,46.30
2018-02-22T18:24:38.587Z,47.10
2018-02-22T18:29:32.878Z,46.90
2018-02-22T18:34:27.249Z,46.60
2018-02-22T18:39:29.171Z,47.00
2018-02-22T18:44:28.865Z,47.80
2018-02-22T18:49:23.352Z,50.10
2018-02-22T18:54:17.711Z,51.90
2018-02-22T18:59:12.186Z,53.20
2018-02-22T19:04:06.496Z,54.70
2018-02-22T19:09:00.781Z,56.60
2018-02-22T19:13:55.065Z,55.70
2018-02-22T19:18:51.468Z,52.00
2018-02-22T19:23:45.759Z,50.80
2018-02-22T19:28:40.063Z,49.90
2018-02-22T19:33:34.342Z,53.30
2018-02-22T19:38:28.657Z,57.00
2018-02-22T19:43:23.073Z,59.00
2018-02-22T19:48:17.371Z,59.50
2018-02-22T19:53:11.665Z,60.90
2018-02-22T19:58:05.953Z,61.80
2018-02-22T20:03:00.282Z,62.80
2018-02-22T20:07:54.566Z,62.40
2018-02-22T20:12:49.044Z,63.40
2018-02-22T20:17:43.348Z,63.40
2018-02-22T20:22:37.830Z,64.20
2018-02-22T20:27:32.161Z,63.80
2018-02-22T20:32:26.483Z,63.70
2018-02-22T20:37:20.887Z,65.10
2018-02-22T20:42:15.184Z,64.20
2018-02-22T20:47:10.009Z,64.70
2018-02-22T20:52:03.889Z,64.60
2018-02-22T20:56:58.205Z,65.00
2018-02-22T21:01:52.871Z,65.20
2018-02-22T21:06:47.178Z,64.80
2018-02-22T21:11:41.662Z,65.10
2018-02-22T21:16:36.148Z,66.30
2018-02-22T21:21:31.212Z,65.60
2018-02-22T21:26:25.525Z,65.50
2018-02-22T21:31:19.823Z,65.70
2018-02-22T21:36:14.114Z,65.80
2018-02-22T21:41:08.428Z,65.60
2018-02-22T21:46:02.728Z,66.50
2018-02-22T21:50:57.218Z,66.20
2018-02-22T21:55:51.714Z,65.50
2018-02-22T22:00:46.125Z,67.30
2018-02-22T22:05:40.439Z,66.10
2018-02-22T22:10:34.733Z,66.40
2018-02-22T22:15:29.442Z,65.60
2018-02-22T22:20:23.738Z,65.30
2018-02-22T22:25:18.005Z,65.00
2018-02-22T22:30:13.121Z,63.60
2018-02-22T22:35:08.200Z,63.20
2018-02-22T22:40:02.596Z,63.10
2018-02-22T22:44:56.921Z,60.80
2018-02-22T22:49:51.210Z,61.10
2018-02-22T22:54:45.521Z,59.60
2018-02-22T22:59:40.110Z,60.00
2018-02-22T23:04:34.414Z,60.80
2018-02-22T23:09:28.579Z,61.40
2018-02-22T23:14:22.884Z,61.50
2018-02-22T23:19:17.189Z,61.80
2018-02-22T23:24:11.487Z,62.00
2018-02-22T23:29:06.297Z,62.50
2018-02-22T23:34:01.324Z,61.80
2018-02-22T23:38:55.427Z,61.80
2018-02-22T23:43:49.534Z,61.80
2018-02-22T23:48:43.832Z,61.20
2018-02-22T23:53:38.428Z,61.50
2018-02-22T23:58:32.720Z,61.60
